sensor_id;sensor_type;location;lat;lon;timestamp;P1;durP1;ratioP1;P2;durP2;ratioP2
6564;SDS011;3316;44.118;27.258;2023-02-28T00:00:17;12.60;;;8.10;;
6564;SDS011;3316;44.118;27.258;2023-02-28T00:02:42;9.90;;;7.93;;
6564;SDS011;3316;44.118;27.258;2023-02-28T00:05:10;10.87;;;7.63;;
6564;SDS011;3316;44.118;27.258;2023-02-28T00:07:36;10.47;;;7.40;;
6564;SDS011;3316;44.118;27.258;2023-02-28T00:10:03;14.50;;;7.77;;
6564;SDS011;3316;44.118;27.258;2023-02-28T00:12:31;13.17;;;8.27;;
6564;SDS011;3316;44.118;27.258;2023-02-28T00:14:57;9.30;;;7.40;;
6564;SDS011;3316;44.118;27.258;2023-02-28T00:17:22;10.23;;;7.40;;
6564;SDS011;3316;44.118;27.258;2023-02-28T00:19:48;9.23;;;6.60;;
6564;SDS011;3316;44.118;27.258;2023-02-28T00:22:15;10.83;;;6.47;;
6564;SDS011;3316;44.118;27.258;2023-02-28T00:24:42;10.87;;;7.37;;
6564;SDS011;3316;44.118;27.258;2023-02-28T00:27:08;8.60;;;6.40;;
6564;SDS011;3316;44.118;27.258;2023-02-28T00:29:34;11.37;;;7.17;;
6564;SDS011;3316;44.118;27.258;2023-02-28T00:31:59;8.23;;;6.43;;
6564;SDS011;3316;44.118;27.258;2023-02-28T00:34:24;9.40;;;7.00;;
6564;SDS011;3316;44.118;27.258;2023-02-28T00:36:50;9.60;;;6.83;;
6564;SDS011;3316;44.118;27.258;2023-02-28T00:39:15;10.23;;;7.47;;
6564;SDS011;3316;44.118;27.258;2023-02-28T00:41:41;10.60;;;7.67;;
6564;SDS011;3316;44.118;27.258;2023-02-28T00:44:07;10.60;;;7.60;;
6564;SDS011;3316;44.118;27.258;2023-02-28T00:46:32;9.37;;;7.07;;
6564;SDS011;3316;44.118;27.258;2023-02-28T00:48:58;10.93;;;7.47;;
6564;SDS011;3316;44.118;27.258;2023-02-28T00:51:24;9.90;;;7.43;;
6564;SDS011;3316;44.118;27.258;2023-02-28T00:53:49;10.77;;;7.77;;
6564;SDS011;3316;44.118;27.258;2023-02-28T00:56:15;9.23;;;7.40;;
6564;SDS011;3316;44.118;27.258;2023-02-28T00:58:40;9.47;;;6.83;;
6564;SDS011;3316;44.118;27.258;2023-02-28T01:01:06;12.13;;;7.57;;
6564;SDS011;3316;44.118;27.258;2023-02-28T01:03:31;11.40;;;7.93;;
6564;SDS011;3316;44.118;27.258;2023-02-28T01:05:57;10.10;;;7.57;;
6564;SDS011;3316;44.118;27.258;2023-02-28T01:08:23;10.53;;;7.67;;
6564;SDS011;3316;44.118;27.258;2023-02-28T01:10:48;9.77;;;7.47;;
6564;SDS011;3316;44.118;27.258;2023-02-28T01:13:14;11.77;;;7.80;;
6564;SDS011;3316;44.118;27.258;2023-02-28T01:15:41;11.57;;;7.67;;
6564;SDS011;3316;44.118;27.258;2023-02-28T01:18:13;12.30;;;8.67;;
6564;SDS011;3316;44.118;27.258;2023-02-28T01:20:38;14.10;;;8.70;;
6564;SDS011;3316;44.118;27.258;2023-02-28T01:23:04;11.77;;;7.67;;
6564;SDS011;3316;44.118;27.258;2023-02-28T01:25:29;11.07;;;8.53;;
6564;SDS011;3316;44.118;27.258;2023-02-28T01:27:55;10.23;;;7.90;;
6564;SDS011;3316;44.118;27.258;2023-02-28T01:30:20;11.37;;;8.80;;
6564;SDS011;3316;44.118;27.258;2023-02-28T01:32:46;14.53;;;9.43;;
6564;SDS011;3316;44.118;27.258;2023-02-28T01:35:11;15.03;;;9.57;;
6564;SDS011;3316;44.118;27.258;2023-02-28T01:37:37;14.70;;;9.40;;
6564;SDS011;3316;44.118;27.258;2023-02-28T01:40:03;13.13;;;9.23;;
6564;SDS011;3316;44.118;27.258;2023-02-28T01:42:28;16.03;;;11.07;;
6564;SDS011;3316;44.118;27.258;2023-02-28T01:47:44;15.30;;;10.07;;
6564;SDS011;3316;44.118;27.258;2023-02-28T01:50:12;15.47;;;10.97;;
6564;SDS011;3316;44.118;27.258;2023-02-28T01:52:42;18.50;;;11.43;;
6564;SDS011;3316;44.118;27.258;2023-02-28T01:55:08;19.57;;;12.73;;
6564;SDS011;3316;44.118;27.258;2023-02-28T01:57:43;18.30;;;12.13;;
6564;SDS011;3316;44.118;27.258;2023-02-28T02:00:17;17.60;;;11.43;;
6564;SDS011;3316;44.118;27.258;2023-02-28T02:02:49;19.63;;;12.13;;
6564;SDS011;3316;44.118;27.258;2023-02-28T02:05:19;22.60;;;13.87;;
6564;SDS011;3316;44.118;27.258;2023-02-28T02:07:48;22.03;;;14.17;;
6564;SDS011;3316;44.118;27.258;2023-02-28T02:10:18;19.90;;;12.97;;
6564;SDS011;3316;44.118;27.258;2023-02-28T02:18:45;23.00;;;14.73;;
6564;SDS011;3316;44.118;27.258;2023-02-28T02:21:37;21.43;;;13.73;;
6564;SDS011;3316;44.118;27.258;2023-02-28T02:24:31;22.60;;;14.87;;
6564;SDS011;3316;44.118;27.258;2023-02-28T02:27:48;21.10;;;13.70;;
6564;SDS011;3316;44.118;27.258;2023-02-28T02:34:20;24.53;;;14.77;;
6564;SDS011;3316;44.118;27.258;2023-02-28T02:39:30;25.10;;;15.10;;
6564;SDS011;3316;44.118;27.258;2023-02-28T02:42:01;24.53;;;14.90;;
6564;SDS011;3316;44.118;27.258;2023-02-28T02:44:39;25.80;;;13.80;;
6564;SDS011;3316;44.118;27.258;2023-02-28T02:47:13;23.43;;;14.77;;
6564;SDS011;3316;44.118;27.258;2023-02-28T02:49:43;22.10;;;13.00;;
6564;SDS011;3316;44.118;27.258;2023-02-28T02:52:14;27.60;;;16.17;;
6564;SDS011;3316;44.118;27.258;2023-02-28T02:54:44;25.43;;;15.37;;
6564;SDS011;3316;44.118;27.258;2023-02-28T02:57:14;24.43;;;14.77;;
6564;SDS011;3316;44.118;27.258;2023-02-28T02:59:46;26.87;;;15.00;;
6564;SDS011;3316;44.118;27.258;2023-02-28T03:02:14;22.00;;;13.70;;
6564;SDS011;3316;44.118;27.258;2023-02-28T03:04:43;24.23;;;15.13;;
6564;SDS011;3316;44.118;27.258;2023-02-28T03:07:13;23.97;;;14.60;;
6564;SDS011;3316;44.118;27.258;2023-02-28T03:09:38;26.40;;;15.70;;
6564;SDS011;3316;44.118;27.258;2023-02-28T03:12:04;25.60;;;15.53;;
6564;SDS011;3316;44.118;27.258;2023-02-28T03:22:46;24.10;;;14.70;;
6564;SDS011;3316;44.118;27.258;2023-02-28T03:25:25;24.67;;;15.53;;
6564;SDS011;3316;44.118;27.258;2023-02-28T03:30:35;24.57;;;15.23;;
6564;SDS011;3316;44.118;27.258;2023-02-28T03:33:07;24.50;;;16.33;;
6564;SDS011;3316;44.118;27.258;2023-02-28T03:35:41;28.47;;;17.13;;
6564;SDS011;3316;44.118;27.258;2023-02-28T03:38:22;27.17;;;16.33;;
6564;SDS011;3316;44.118;27.258;2023-02-28T03:41:05;22.20;;;14.60;;
6564;SDS011;3316;44.118;27.258;2023-02-28T03:43:41;25.00;;;16.43;;
6564;SDS011;3316;44.118;27.258;2023-02-28T03:46:12;26.00;;;15.50;;
6564;SDS011;3316;44.118;27.258;2023-02-28T03:48:43;25.87;;;15.83;;
6564;SDS011;3316;44.118;27.258;2023-02-28T03:51:17;23.70;;;14.83;;
6564;SDS011;3316;44.118;27.258;2023-02-28T03:53:50;23.47;;;14.37;;
6564;SDS011;3316;44.118;27.258;2023-02-28T03:56:24;24.63;;;14.90;;
6564;SDS011;3316;44.118;27.258;2023-02-28T04:01:44;25.23;;;15.33;;
6564;SDS011;3316;44.118;27.258;2023-02-28T04:04:12;25.93;;;15.57;;
6564;SDS011;3316;44.118;27.258;2023-02-28T04:06:39;22.60;;;13.87;;
6564;SDS011;3316;44.118;27.258;2023-02-28T04:09:05;23.70;;;14.77;;
6564;SDS011;3316;44.118;27.258;2023-02-28T04:11:37;27.63;;;15.17;;
6564;SDS011;3316;44.118;27.258;2023-02-28T04:14:05;23.43;;;14.63;;
6564;SDS011;3316;44.118;27.258;2023-02-28T04:16:33;24.70;;;15.10;;
6564;SDS011;3316;44.118;27.258;2023-02-28T04:18:59;24.77;;;14.57;;
6564;SDS011;3316;44.118;27.258;2023-02-28T04:21:30;24.80;;;15.77;;
6564;SDS011;3316;44.118;27.258;2023-02-28T04:23:57;27.23;;;15.53;;
6564;SDS011;3316;44.118;27.258;2023-02-28T04:26:25;23.57;;;15.13;;
6564;SDS011;3316;44.118;27.258;2023-02-28T04:28:53;25.37;;;14.87;;
6564;SDS011;3316;44.118;27.258;2023-02-28T04:31:19;24.17;;;15.00;;
6564;SDS011;3316;44.118;27.258;2023-02-28T04:33:44;25.60;;;14.97;;
6564;SDS011;3316;44.118;27.258;2023-02-28T04:36:09;24.20;;;14.20;;
6564;SDS011;3316;44.118;27.258;2023-02-28T04:38:36;22.77;;;14.57;;
6564;SDS011;3316;44.118;27.258;2023-02-28T04:41:03;23.13;;;14.67;;
6564;SDS011;3316;44.118;27.258;2023-02-28T04:43:29;24.07;;;13.93;;
6564;SDS011;3316;44.118;27.258;2023-02-28T04:45:55;23.80;;;14.60;;
6564;SDS011;3316;44.118;27.258;2023-02-28T04:48:25;24.03;;;14.30;;
6564;SDS011;3316;44.118;27.258;2023-02-28T04:50:52;21.93;;;13.53;;
6564;SDS011;3316;44.118;27.258;2023-02-28T04:53:18;25.30;;;15.30;;
6564;SDS011;3316;44.118;27.258;2023-02-28T04:55:44;26.77;;;15.27;;
6564;SDS011;3316;44.118;27.258;2023-02-28T04:58:10;24.77;;;14.63;;
6564;SDS011;3316;44.118;27.258;2023-02-28T05:00:36;27.53;;;15.37;;
6564;SDS011;3316;44.118;27.258;2023-02-28T05:03:01;24.57;;;15.23;;
6564;SDS011;3316;44.118;27.258;2023-02-28T05:05:27;26.23;;;15.80;;
6564;SDS011;3316;44.118;27.258;2023-02-28T05:07:53;24.23;;;14.93;;
6564;SDS011;3316;44.118;27.258;2023-02-28T05:10:20;24.63;;;15.23;;
6564;SDS011;3316;44.118;27.258;2023-02-28T05:12:46;26.83;;;16.33;;
6564;SDS011;3316;44.118;27.258;2023-02-28T05:15:13;24.33;;;15.20;;
6564;SDS011;3316;44.118;27.258;2023-02-28T05:17:42;24.53;;;15.90;;
6564;SDS011;3316;44.118;27.258;2023-02-28T05:20:08;24.60;;;15.37;;
6564;SDS011;3316;44.118;27.258;2023-02-28T05:22:36;26.87;;;15.47;;
6564;SDS011;3316;44.118;27.258;2023-02-28T05:25:02;29.17;;;18.40;;
6564;SDS011;3316;44.118;27.258;2023-02-28T05:27:29;26.47;;;16.87;;
6564;SDS011;3316;44.118;27.258;2023-02-28T05:29:55;26.43;;;15.87;;
6564;SDS011;3316;44.118;27.258;2023-02-28T05:32:21;27.27;;;15.47;;
6564;SDS011;3316;44.118;27.258;2023-02-28T05:34:46;33.13;;;17.20;;
6564;SDS011;3316;44.118;27.258;2023-02-28T05:37:12;46.07;;;20.07;;
6564;SDS011;3316;44.118;27.258;2023-02-28T05:39:38;32.23;;;18.00;;
6564;SDS011;3316;44.118;27.258;2023-02-28T05:42:04;57.13;;;23.70;;
6564;SDS011;3316;44.118;27.258;2023-02-28T05:44:30;34.70;;;16.97;;
6564;SDS011;3316;44.118;27.258;2023-02-28T05:46:55;28.10;;;15.10;;
6564;SDS011;3316;44.118;27.258;2023-02-28T05:49:21;31.27;;;16.53;;
6564;SDS011;3316;44.118;27.258;2023-02-28T05:51:46;25.97;;;15.80;;
6564;SDS011;3316;44.118;27.258;2023-02-28T05:54:12;29.70;;;17.27;;
6564;SDS011;3316;44.118;27.258;2023-02-28T05:56:37;25.23;;;14.40;;
6564;SDS011;3316;44.118;27.258;2023-02-28T05:59:05;25.03;;;16.27;;
6564;SDS011;3316;44.118;27.258;2023-02-28T06:01:32;27.60;;;17.13;;
6564;SDS011;3316;44.118;27.258;2023-02-28T06:04:04;26.03;;;16.20;;
6564;SDS011;3316;44.118;27.258;2023-02-28T06:06:31;27.67;;;16.27;;
6564;SDS011;3316;44.118;27.258;2023-02-28T06:08:59;37.33;;;19.93;;
6564;SDS011;3316;44.118;27.258;2023-02-28T06:11:25;43.90;;;21.13;;
6564;SDS011;3316;44.118;27.258;2023-02-28T06:13:55;34.37;;;19.30;;
6564;SDS011;3316;44.118;27.258;2023-02-28T06:16:25;31.93;;;16.60;;
6564;SDS011;3316;44.118;27.258;2023-02-28T06:18:51;32.03;;;18.93;;
6564;SDS011;3316;44.118;27.258;2023-02-28T06:21:17;32.10;;;18.03;;
6564;SDS011;3316;44.118;27.258;2023-02-28T06:23:43;37.43;;;20.17;;
6564;SDS011;3316;44.118;27.258;2023-02-28T06:26:09;29.77;;;16.63;;
6564;SDS011;3316;44.118;27.258;2023-02-28T06:28:35;34.17;;;19.37;;
6564;SDS011;3316;44.118;27.258;2023-02-28T06:31:05;35.03;;;19.77;;
6564;SDS011;3316;44.118;27.258;2023-02-28T06:33:31;37.47;;;20.50;;
6564;SDS011;3316;44.118;27.258;2023-02-28T06:35:57;34.67;;;18.97;;
6564;SDS011;3316;44.118;27.258;2023-02-28T06:38:22;33.03;;;19.00;;
6564;SDS011;3316;44.118;27.258;2023-02-28T06:40:55;27.70;;;16.93;;
6564;SDS011;3316;44.118;27.258;2023-02-28T06:43:22;31.10;;;17.87;;
6564;SDS011;3316;44.118;27.258;2023-02-28T06:45:47;30.17;;;16.40;;
6564;SDS011;3316;44.118;27.258;2023-02-28T06:48:13;32.93;;;20.73;;
6564;SDS011;3316;44.118;27.258;2023-02-28T06:50:38;26.37;;;17.03;;
6564;SDS011;3316;44.118;27.258;2023-02-28T06:53:04;32.13;;;20.03;;
6564;SDS011;3316;44.118;27.258;2023-02-28T06:55:29;32.20;;;20.30;;
6564;SDS011;3316;44.118;27.258;2023-02-28T06:57:55;27.90;;;17.17;;
6564;SDS011;3316;44.118;27.258;2023-02-28T07:00:21;27.40;;;16.63;;
6564;SDS011;3316;44.118;27.258;2023-02-28T07:02:46;29.13;;;17.37;;
6564;SDS011;3316;44.118;27.258;2023-02-28T07:05:12;35.53;;;20.67;;
6564;SDS011;3316;44.118;27.258;2023-02-28T07:07:38;27.23;;;16.83;;
6564;SDS011;3316;44.118;27.258;2023-02-28T07:10:08;29.17;;;18.43;;
6564;SDS011;3316;44.118;27.258;2023-02-28T07:12:36;28.17;;;18.47;;
6564;SDS011;3316;44.118;27.258;2023-02-28T07:15:02;25.80;;;15.90;;
6564;SDS011;3316;44.118;27.258;2023-02-28T07:17:29;26.83;;;15.97;;
6564;SDS011;3316;44.118;27.258;2023-02-28T07:19:54;26.43;;;14.67;;
6564;SDS011;3316;44.118;27.258;2023-02-28T07:22:20;29.87;;;18.80;;
6564;SDS011;3316;44.118;27.258;2023-02-28T07:24:45;27.07;;;16.00;;
6564;SDS011;3316;44.118;27.258;2023-02-28T07:27:11;24.23;;;15.00;;
6564;SDS011;3316;44.118;27.258;2023-02-28T07:29:36;27.40;;;16.27;;
6564;SDS011;3316;44.118;27.258;2023-02-28T07:32:03;29.33;;;17.70;;
6564;SDS011;3316;44.118;27.258;2023-02-28T07:34:28;25.13;;;16.57;;
6564;SDS011;3316;44.118;27.258;2023-02-28T07:36:54;27.73;;;17.90;;
6564;SDS011;3316;44.118;27.258;2023-02-28T07:39:20;21.73;;;14.03;;
6564;SDS011;3316;44.118;27.258;2023-02-28T07:41:46;25.00;;;15.13;;
6564;SDS011;3316;44.118;27.258;2023-02-28T07:44:12;26.87;;;14.90;;
6564;SDS011;3316;44.118;27.258;2023-02-28T07:46:37;27.27;;;16.93;;
6564;SDS011;3316;44.118;27.258;2023-02-28T07:49:03;27.40;;;17.77;;
6564;SDS011;3316;44.118;27.258;2023-02-28T07:51:30;28.73;;;17.27;;
6564;SDS011;3316;44.118;27.258;2023-02-28T07:53:56;33.43;;;18.57;;
6564;SDS011;3316;44.118;27.258;2023-02-28T07:56:21;26.70;;;16.07;;
6564;SDS011;3316;44.118;27.258;2023-02-28T07:58:47;26.80;;;16.83;;
6564;SDS011;3316;44.118;27.258;2023-02-28T08:01:12;28.73;;;17.50;;
6564;SDS011;3316;44.118;27.258;2023-02-28T08:03:38;27.63;;;15.80;;
6564;SDS011;3316;44.118;27.258;2023-02-28T08:06:04;28.20;;;17.17;;
6564;SDS011;3316;44.118;27.258;2023-02-28T08:08:31;27.93;;;16.97;;
6564;SDS011;3316;44.118;27.258;2023-02-28T08:11:00;27.23;;;16.33;;
6564;SDS011;3316;44.118;27.258;2023-02-28T08:13:27;23.17;;;13.97;;
6564;SDS011;3316;44.118;27.258;2023-02-28T08:15:54;26.40;;;15.47;;
6564;SDS011;3316;44.118;27.258;2023-02-28T08:18:20;28.63;;;17.33;;
6564;SDS011;3316;44.118;27.258;2023-02-28T08:20:47;15.20;;;9.57;;
6564;SDS011;3316;44.118;27.258;2023-02-28T08:23:12;26.47;;;16.77;;
6564;SDS011;3316;44.118;27.258;2023-02-28T08:25:38;28.60;;;15.90;;
6564;SDS011;3316;44.118;27.258;2023-02-28T08:28:03;35.50;;;20.33;;
6564;SDS011;3316;44.118;27.258;2023-02-28T08:30:29;35.30;;;17.57;;
6564;SDS011;3316;44.118;27.258;2023-02-28T08:32:54;20.67;;;11.33;;
6564;SDS011;3316;44.118;27.258;2023-02-28T08:35:20;22.43;;;12.40;;
6564;SDS011;3316;44.118;27.258;2023-02-28T08:37:49;22.87;;;12.93;;
6564;SDS011;3316;44.118;27.258;2023-02-28T08:40:15;25.27;;;15.77;;
6564;SDS011;3316;44.118;27.258;2023-02-28T08:42:44;25.23;;;16.67;;
6564;SDS011;3316;44.118;27.258;2023-02-28T08:45:10;28.80;;;18.03;;
6564;SDS011;3316;44.118;27.258;2023-02-28T08:47:36;25.13;;;16.47;;
6564;SDS011;3316;44.118;27.258;2023-02-28T08:50:01;26.03;;;15.67;;
6564;SDS011;3316;44.118;27.258;2023-02-28T08:52:27;27.10;;;17.07;;
6564;SDS011;3316;44.118;27.258;2023-02-28T08:54:53;22.13;;;12.80;;
6564;SDS011;3316;44.118;27.258;2023-02-28T08:57:18;30.37;;;17.50;;
6564;SDS011;3316;44.118;27.258;2023-02-28T08:59:43;24.53;;;13.73;;
6564;SDS011;3316;44.118;27.258;2023-02-28T09:02:11;20.70;;;11.83;;
6564;SDS011;3316;44.118;27.258;2023-02-28T09:04:38;23.83;;;13.80;;
6564;SDS011;3316;44.118;27.258;2023-02-28T09:07:03;21.07;;;13.00;;
6564;SDS011;3316;44.118;27.258;2023-02-28T09:09:29;23.97;;;14.27;;
6564;SDS011;3316;44.118;27.258;2023-02-28T09:11:57;20.47;;;13.07;;
6564;SDS011;3316;44.118;27.258;2023-02-28T09:14:23;18.23;;;12.00;;
6564;SDS011;3316;44.118;27.258;2023-02-28T09:16:48;22.63;;;13.50;;
6564;SDS011;3316;44.118;27.258;2023-02-28T09:19:14;17.73;;;11.73;;
6564;SDS011;3316;44.118;27.258;2023-02-28T09:21:40;11.40;;;7.00;;
6564;SDS011;3316;44.118;27.258;2023-02-28T09:24:05;21.53;;;12.77;;
6564;SDS011;3316;44.118;27.258;2023-02-28T09:26:31;23.37;;;14.30;;
6564;SDS011;3316;44.118;27.258;2023-02-28T09:28:57;19.90;;;11.63;;
6564;SDS011;3316;44.118;27.258;2023-02-28T09:31:25;22.20;;;15.03;;
6564;SDS011;3316;44.118;27.258;2023-02-28T09:33:52;18.50;;;12.07;;
6564;SDS011;3316;44.118;27.258;2023-02-28T09:36:20;22.67;;;14.70;;
6564;SDS011;3316;44.118;27.258;2023-02-28T09:38:47;21.63;;;14.23;;
6564;SDS011;3316;44.118;27.258;2023-02-28T09:41:13;22.37;;;14.23;;
6564;SDS011;3316;44.118;27.258;2023-02-28T09:43:44;22.23;;;13.90;;
6564;SDS011;3316;44.118;27.258;2023-02-28T09:48:50;24.07;;;15.17;;
6564;SDS011;3316;44.118;27.258;2023-02-28T09:51:27;25.40;;;14.43;;
6564;SDS011;3316;44.118;27.258;2023-02-28T09:53:57;26.57;;;16.30;;
6564;SDS011;3316;44.118;27.258;2023-02-28T09:56:41;30.37;;;16.97;;
6564;SDS011;3316;44.118;27.258;2023-02-28T09:59:20;21.17;;;14.70;;
6564;SDS011;3316;44.118;27.258;2023-02-28T10:04:59;21.47;;;14.53;;
6564;SDS011;3316;44.118;27.258;2023-02-28T10:10:21;24.07;;;14.20;;
6564;SDS011;3316;44.118;27.258;2023-02-28T10:12:52;20.43;;;11.70;;
6564;SDS011;3316;44.118;27.258;2023-02-28T10:15:20;25.83;;;15.70;;
6564;SDS011;3316;44.118;27.258;2023-02-28T10:17:48;24.40;;;15.77;;
6564;SDS011;3316;44.118;27.258;2023-02-28T10:20:20;24.57;;;14.47;;
6564;SDS011;3316;44.118;27.258;2023-02-28T10:25:25;25.67;;;15.03;;
6564;SDS011;3316;44.118;27.258;2023-02-28T10:27:53;21.70;;;14.87;;
6564;SDS011;3316;44.118;27.258;2023-02-28T10:30:22;26.00;;;16.70;;
6564;SDS011;3316;44.118;27.258;2023-02-28T10:32:51;25.33;;;16.67;;
6564;SDS011;3316;44.118;27.258;2023-02-28T10:37:49;30.07;;;19.03;;
6564;SDS011;3316;44.118;27.258;2023-02-28T10:42:55;35.47;;;18.27;;
6564;SDS011;3316;44.118;27.258;2023-02-28T10:45:40;31.10;;;18.60;;
6564;SDS011;3316;44.118;27.258;2023-02-28T10:48:38;23.70;;;15.60;;
6564;SDS011;3316;44.118;27.258;2023-02-28T10:51:05;23.97;;;14.77;;
6564;SDS011;3316;44.118;27.258;2023-02-28T10:53:37;23.87;;;15.17;;
6564;SDS011;3316;44.118;27.258;2023-02-28T11:01:27;24.93;;;15.50;;
6564;SDS011;3316;44.118;27.258;2023-02-28T11:07:20;26.33;;;16.03;;
6564;SDS011;3316;44.118;27.258;2023-02-28T11:09:51;28.80;;;16.90;;
6564;SDS011;3316;44.118;27.258;2023-02-28T11:15:25;28.93;;;17.97;;
6564;SDS011;3316;44.118;27.258;2023-02-28T11:17:53;26.03;;;14.57;;
6564;SDS011;3316;44.118;27.258;2023-02-28T11:20:24;23.57;;;16.10;;
6564;SDS011;3316;44.118;27.258;2023-02-28T11:22:53;25.63;;;15.93;;
6564;SDS011;3316;44.118;27.258;2023-02-28T11:27:49;26.07;;;16.57;;
6564;SDS011;3316;44.118;27.258;2023-02-28T11:33:18;23.07;;;15.60;;
6564;SDS011;3316;44.118;27.258;2023-02-28T11:35:51;23.33;;;14.80;;
6564;SDS011;3316;44.118;27.258;2023-02-28T11:38:20;23.40;;;14.20;;
6564;SDS011;3316;44.118;27.258;2023-02-28T11:40:48;26.13;;;16.73;;
6564;SDS011;3316;44.118;27.258;2023-02-28T11:43:27;26.37;;;15.80;;
6564;SDS011;3316;44.118;27.258;2023-02-28T11:48:58;26.73;;;17.03;;
6564;SDS011;3316;44.118;27.258;2023-02-28T11:51:39;26.00;;;15.87;;
6564;SDS011;3316;44.118;27.258;2023-02-28T11:57:00;25.80;;;15.03;;
6564;SDS011;3316;44.118;27.258;2023-02-28T12:02:25;25.80;;;15.13;;
6564;SDS011;3316;44.118;27.258;2023-02-28T12:07:42;22.67;;;15.10;;
6564;SDS011;3316;44.118;27.258;2023-02-28T12:10:22;25.27;;;16.20;;
6564;SDS011;3316;44.118;27.258;2023-02-28T12:13:00;25.90;;;16.73;;
6564;SDS011;3316;44.118;27.258;2023-02-28T12:21:11;25.40;;;16.23;;
6564;SDS011;3316;44.118;27.258;2023-02-28T12:26:42;28.30;;;15.20;;
6564;SDS011;3316;44.118;27.258;2023-02-28T12:32:46;30.97;;;19.50;;
6564;SDS011;3316;44.118;27.258;2023-02-28T12:37:45;42.07;;;22.90;;
6564;SDS011;3316;44.118;27.258;2023-02-28T12:40:22;48.40;;;24.73;;
6564;SDS011;3316;44.118;27.258;2023-02-28T12:42:56;34.07;;;19.80;;
6564;SDS011;3316;44.118;27.258;2023-02-28T12:48:08;30.80;;;18.03;;
6564;SDS011;3316;44.118;27.258;2023-02-28T12:50:40;29.80;;;18.50;;
6564;SDS011;3316;44.118;27.258;2023-02-28T12:53:06;31.23;;;19.40;;
6564;SDS011;3316;44.118;27.258;2023-02-28T13:09:02;29.17;;;17.77;;
6564;SDS011;3316;44.118;27.258;2023-02-28T13:11:33;34.27;;;19.07;;
6564;SDS011;3316;44.118;27.258;2023-02-28T13:14:04;29.23;;;17.53;;
6564;SDS011;3316;44.118;27.258;2023-02-28T13:16:48;26.87;;;17.13;;
6564;SDS011;3316;44.118;27.258;2023-02-28T13:19:25;25.70;;;15.47;;
6564;SDS011;3316;44.118;27.258;2023-02-28T13:21:53;25.10;;;13.87;;
6564;SDS011;3316;44.118;27.258;2023-02-28T13:27:34;26.07;;;15.97;;
6564;SDS011;3316;44.118;27.258;2023-02-28T13:33:21;32.13;;;18.90;;
6564;SDS011;3316;44.118;27.258;2023-02-28T13:36:00;30.17;;;17.53;;
6564;SDS011;3316;44.118;27.258;2023-02-28T13:38:33;34.03;;;18.93;;
6564;SDS011;3316;44.118;27.258;2023-02-28T13:44:04;29.80;;;18.83;;
6564;SDS011;3316;44.118;27.258;2023-02-28T13:47:16;33.03;;;20.40;;
6564;SDS011;3316;44.118;27.258;2023-02-28T13:49:26;31.93;;;19.57;;
6564;SDS011;3316;44.118;27.258;2023-02-28T14:02:56;22.90;;;14.70;;
6564;SDS011;3316;44.118;27.258;2023-02-28T14:05:26;31.57;;;16.33;;
6564;SDS011;3316;44.118;27.258;2023-02-28T14:07:56;38.93;;;22.60;;
6564;SDS011;3316;44.118;27.258;2023-02-28T14:10:27;20.47;;;13.57;;
6564;SDS011;3316;44.118;27.258;2023-02-28T14:17:58;27.00;;;16.53;;
6564;SDS011;3316;44.118;27.258;2023-02-28T14:20:27;27.60;;;17.60;;
6564;SDS011;3316;44.118;27.258;2023-02-28T14:31:53;35.03;;;20.70;;
6564;SDS011;3316;44.118;27.258;2023-02-28T14:34:43;30.63;;;19.40;;
6564;SDS011;3316;44.118;27.258;2023-02-28T14:37:23;31.37;;;20.00;;
6564;SDS011;3316;44.118;27.258;2023-02-28T14:39:53;32.03;;;20.20;;
6564;SDS011;3316;44.118;27.258;2023-02-28T14:42:31;30.47;;;16.63;;
6564;SDS011;3316;44.118;27.258;2023-02-28T14:45:03;29.70;;;18.53;;
6564;SDS011;3316;44.118;27.258;2023-02-28T14:47:32;40.27;;;25.10;;
6564;SDS011;3316;44.118;27.258;2023-02-28T14:50:00;40.97;;;23.27;;
6564;SDS011;3316;44.118;27.258;2023-02-28T14:52:29;34.67;;;21.17;;
6564;SDS011;3316;44.118;27.258;2023-02-28T14:54:58;35.60;;;21.27;;
6564;SDS011;3316;44.118;27.258;2023-02-28T14:57:33;29.47;;;19.37;;
6564;SDS011;3316;44.118;27.258;2023-02-28T15:00:05;29.83;;;18.93;;
6564;SDS011;3316;44.118;27.258;2023-02-28T15:02:39;35.07;;;22.40;;
6564;SDS011;3316;44.118;27.258;2023-02-28T15:07:45;33.70;;;18.60;;
6564;SDS011;3316;44.118;27.258;2023-02-28T15:10:24;24.87;;;12.87;;
6564;SDS011;3316;44.118;27.258;2023-02-28T15:15:52;36.83;;;22.43;;
6564;SDS011;3316;44.118;27.258;2023-02-28T15:18:23;32.37;;;19.10;;
6564;SDS011;3316;44.118;27.258;2023-02-28T15:21:02;23.53;;;14.67;;
6564;SDS011;3316;44.118;27.258;2023-02-28T15:23:31;34.67;;;21.23;;
6564;SDS011;3316;44.118;27.258;2023-02-28T15:26:00;35.70;;;20.97;;
6564;SDS011;3316;44.118;27.258;2023-02-28T15:28:25;33.03;;;19.70;;
6564;SDS011;3316;44.118;27.258;2023-02-28T15:30:57;37.40;;;23.17;;
6564;SDS011;3316;44.118;27.258;2023-02-28T15:33:28;34.67;;;21.27;;
6564;SDS011;3316;44.118;27.258;2023-02-28T15:38:35;32.57;;;19.53;;
6564;SDS011;3316;44.118;27.258;2023-02-28T15:41:01;33.33;;;19.10;;
6564;SDS011;3316;44.118;27.258;2023-02-28T15:45:57;34.17;;;19.63;;
6564;SDS011;3316;44.118;27.258;2023-02-28T15:48:33;31.07;;;18.63;;
6564;SDS011;3316;44.118;27.258;2023-02-28T15:51:08;41.03;;;24.07;;
6564;SDS011;3316;44.118;27.258;2023-02-28T15:53:50;40.97;;;24.43;;
6564;SDS011;3316;44.118;27.258;2023-02-28T15:56:32;35.83;;;21.30;;
6564;SDS011;3316;44.118;27.258;2023-02-28T15:59:05;29.80;;;17.63;;
6564;SDS011;3316;44.118;27.258;2023-02-28T16:01:35;38.13;;;19.87;;
6564;SDS011;3316;44.118;27.258;2023-02-28T16:04:04;34.60;;;21.07;;
6564;SDS011;3316;44.118;27.258;2023-02-28T16:09:02;48.77;;;28.03;;
6564;SDS011;3316;44.118;27.258;2023-02-28T16:11:29;42.87;;;25.40;;
6564;SDS011;3316;44.118;27.258;2023-02-28T16:13:55;46.93;;;25.90;;
6564;SDS011;3316;44.118;27.258;2023-02-28T16:16:22;47.10;;;25.60;;
6564;SDS011;3316;44.118;27.258;2023-02-28T16:18:50;53.13;;;31.43;;
6564;SDS011;3316;44.118;27.258;2023-02-28T16:21:16;40.60;;;25.30;;
6564;SDS011;3316;44.118;27.258;2023-02-28T16:23:42;35.73;;;22.47;;
6564;SDS011;3316;44.118;27.258;2023-02-28T16:26:07;45.07;;;26.23;;
6564;SDS011;3316;44.118;27.258;2023-02-28T16:28:39;34.00;;;20.57;;
6564;SDS011;3316;44.118;27.258;2023-02-28T16:31:05;40.23;;;23.30;;
6564;SDS011;3316;44.118;27.258;2023-02-28T16:33:32;39.90;;;23.77;;
6564;SDS011;3316;44.118;27.258;2023-02-28T16:35:59;34.27;;;21.27;;
6564;SDS011;3316;44.118;27.258;2023-02-28T16:38:25;31.87;;;20.60;;
6564;SDS011;3316;44.118;27.258;2023-02-28T16:40:51;30.43;;;17.20;;
6564;SDS011;3316;44.118;27.258;2023-02-28T16:43:18;33.47;;;20.60;;
6564;SDS011;3316;44.118;27.258;2023-02-28T16:45:47;34.87;;;22.60;;
6564;SDS011;3316;44.118;27.258;2023-02-28T16:48:14;36.63;;;21.57;;
6564;SDS011;3316;44.118;27.258;2023-02-28T16:50:41;31.67;;;18.53;;
6564;SDS011;3316;44.118;27.258;2023-02-28T16:53:08;35.23;;;20.37;;
6564;SDS011;3316;44.118;27.258;2023-02-28T16:55:33;30.17;;;18.03;;
6564;SDS011;3316;44.118;27.258;2023-02-28T16:57:59;39.77;;;23.87;;
6564;SDS011;3316;44.118;27.258;2023-02-28T17:00:27;32.73;;;19.77;;
6564;SDS011;3316;44.118;27.258;2023-02-28T17:02:53;34.40;;;19.53;;
6564;SDS011;3316;44.118;27.258;2023-02-28T17:05:20;35.70;;;20.87;;
6564;SDS011;3316;44.118;27.258;2023-02-28T17:07:46;39.10;;;23.17;;
6564;SDS011;3316;44.118;27.258;2023-02-28T17:10:13;37.67;;;22.20;;
6564;SDS011;3316;44.118;27.258;2023-02-28T17:12:40;37.23;;;22.87;;
6564;SDS011;3316;44.118;27.258;2023-02-28T17:15:06;29.40;;;17.30;;
6564;SDS011;3316;44.118;27.258;2023-02-28T17:17:32;33.90;;;20.83;;